LCLK Airport Information

Runway Information
Runway 04 Length 9776 ft width 148 ft
Elevation 11 ft Threshold 0 ft Heading 45
Runway 22 Length 9776 ft Width 148 ft
Elevation 6 ft Threshold 575 ft Heading 225
Airport Frequencies
Type APP Name APP Frequency 121.2 MHZ
Type ATIS Name ATIS Frequency 126.55 MHZ
Type TWR Name TWR Frequency 119.4 MHZ
Airport Navaids
Type VOR-DME Name Larnaca Frequency 112800 KHZ
Type NDB Name Larnaca Frequency 432 KHZ
Airport Weather Information & NOTAM
ADDS - METARS form results

(2256 UTC 19 September 2018)
Data provider http://aviationweather.gov/metar/data/
 
METAR text: LCLK 192230Z 28002KT CAVOK 24/13 Q1010 NOSIG
Conditions at: LCLK (LARNACA/LARNAX A, CY) observed 2230 UTC 19 September 2018
Temperature: 24.0°C (75°F)
Dewpoint: 13.0°C (55°F) [RH = 50%]
Pressure (altimeter): 29.82 inches Hg (1010.0 mb)
Winds: from the W (280 degrees) at 2 MPH (2 knots; 1.0 m/s)
Visibility: 6 or more miles (10+ km)
Ceiling: ceiling and visibility are OK
Clouds: unknown
Weather: no significant weather observed at this time

METAR text: LCLK 192200Z 00000KT CAVOK 24/13 Q1010 NOSIG
Conditions at: LCLK (LARNACA/LARNAX A, CY) observed 2200 UTC 19 September 2018
Temperature: 24.0°C (75°F)
Dewpoint: 13.0°C (55°F) [RH = 50%]
Pressure (altimeter): 29.82 inches Hg (1010.0 mb)
Winds: calm
Visibility: 6 or more miles (10+ km)
Ceiling: ceiling and visibility are OK
Clouds: unknown
Weather: no significant weather observed at this time

Forecast for: LCLK (LARNACA/LARNAX A, CY)
Text: TAF LCLK 191130Z 1912/2012 18012KT 9999 FEW035
Forecast period: 1200 to 1600 UTC 19 September 2018
Forecast type: FROM: standard forecast or significant change
Winds: from the S (180 degrees) at 14 MPH (12 knots; 6.2 m/s)
Visibility: 6 or more miles 10+ km)
Ceiling: at least 12,000 feet AGL
Clouds: few clouds at 3500 feet AGL
Weather: no significant weather forecast for this period
Text: BECMG 1916/1920 32008KT
Forecast period: 1600 UTC 19 September 2018 to 0700 UTC 20 September 2018
Forecast type: BECOMING: Conditions expected to become as follows by 2000 UTC 19 September 2018
Winds: from the NW (320 degrees) at 9 MPH (8 knots; 4.1 m/s)
Visibility: 6 or more miles 10+ km)
Ceiling: at least 12,000 feet AGL
Clouds: few clouds at 3500 feet AGL
Weather: no significant weather forecast for this period
Text: BECMG 2007/2010 22014KT
Forecast period: 0700 to 1200 UTC 20 September 2018
Forecast type: BECOMING: Conditions expected to become as follows by 1000 UTC 20 September 2018
Winds: from the SW (220 degrees) at 16 MPH (14 knots; 7.2 m/s)
Visibility: 6 or more miles 10+ km)
Ceiling: at least 12,000 feet AGL
Clouds: few clouds at 3500 feet AGL
Weather: no significant weather forecast for this period